Accueil
METAR-TAF:

METAR-TAF

Aéroports :

Aéroport international Cesária-Évora

São Vicente, Cap-Vert

latitude: 16-49-59N, longitude: 25-03-25W, altitude: 20 m

Observation

Le bulletin a été fait il y a 6 minutes, à 18:00 UTC
Vent 12 kt de est/nord-est
Température 27°C
Humidité 45%
Pression 1015 hPa
Visibilité 10 km ou plus
pas de nuages en-dessous de 1500 mètres et pas de cumulonimbus.

METAR: GVSV 241800Z 06012KT CAVOK 27/14 Q1015 NOSIG

Heure: 17:06 (18:06 UTC)

Prévision

Le bulletin a été fait il y a 1 heure et 6 minutes, à 17:00 UTC
Prévision valable du 24 à 18 UTC au 25 à 24 UTC
Vent 18 kt de est/nord-est
Visibilité 10 km ou plus
Quelques nuages à une hauteur de 1600 ft
Temporairement
du 25 à 12 UTC au 25 à 20 UTC
Vent 22 kt de est/nord-est avec des rafales jusqu'à 34 kt

TAF: GVSV 241700Z 2418/2524 06018KT 9999 FEW016 TEMPO 2512/2520 06022G34KT

Observations et prévisions météorologiques de plus de 4000 aéroports (messages METAR et TAF).

Les stations disponibles sont représentées par des disques jaunes et rouges sur la carte.

Passer la souris dessus pour voir le nom de la station.

Cliquer dessus pour voir les observations et prévisions météorologiques.

Pour changer de carte: cliquez sur les boutons verts avec une croix noire pour zoomer, sur le bouton vert avec un tiret pour effectuer un zoom arrière, ou sur les flèches vertes pour les cartes adjacentes.


METAR-TAF: